sensor_id;sensor_type;location;lat;lon;timestamp;pressure;altitude;pressure_sealevel;temperature;humidity
65546;BME280;52177;55.968;37.498;2023-07-02T00:00:01;97987.34;;;18.65;70.74
65546;BME280;52177;55.968;37.498;2023-07-02T00:00:31;97982.75;;;18.66;70.80
65546;BME280;52177;55.968;37.498;2023-07-02T00:01:01;97988.16;;;18.66;70.86
65546;BME280;52177;55.968;37.498;2023-07-02T00:01:32;97986.28;;;18.66;70.78
65546;BME280;52177;55.968;37.498;2023-07-02T00:02:02;97985.72;;;18.64;71.00
65546;BME280;52177;55.968;37.498;2023-07-02T00:02:32;97988.44;;;18.64;70.88
65546;BME280;52177;55.968;37.498;2023-07-02T00:03:03;97984.09;;;18.63;70.93
65546;BME280;52177;55.968;37.498;2023-07-02T00:03:34;97995.72;;;18.64;70.86
65546;BME280;52177;55.968;37.498;2023-07-02T00:04:04;97991.13;;;18.64;71.13
65546;BME280;52177;55.968;37.498;2023-07-02T00:04:34;97991.94;;;18.65;70.93
65546;BME280;52177;55.968;37.498;2023-07-02T00:05:05;97992.19;;;18.63;70.95
65546;BME280;52177;55.968;37.498;2023-07-02T00:05:36;97996.00;;;18.62;71.09
65546;BME280;52177;55.968;37.498;2023-07-02T00:06:07;98000.59;;;18.62;71.20
65546;BME280;52177;55.968;37.498;2023-07-02T00:06:37;97996.00;;;18.62;71.02
65546;BME280;52177;55.968;37.498;2023-07-02T00:07:10;97997.34;;;18.60;70.94
65546;BME280;52177;55.968;37.498;2023-07-02T00:07:41;97991.41;;;18.58;71.21
65546;BME280;52177;55.968;37.498;2023-07-02T00:08:11;97994.09;;;18.58;71.19
65546;BME280;52177;55.968;37.498;2023-07-02T00:08:41;97991.66;;;18.56;71.35
65546;BME280;52177;55.968;37.498;2023-07-02T00:09:12;97998.94;;;18.55;71.54
65546;BME280;52177;55.968;37.498;2023-07-02T00:09:43;98002.75;;;18.54;71.36
65546;BME280;52177;55.968;37.498;2023-07-02T00:10:13;97995.72;;;18.53;71.46
65546;BME280;52177;55.968;37.498;2023-07-02T00:10:43;97992.47;;;18.51;71.45
65546;BME280;52177;55.968;37.498;2023-07-02T00:11:15;98000.56;;;18.51;71.45
65546;BME280;52177;55.968;37.498;2023-07-02T00:11:46;97995.16;;;18.51;71.48
65546;BME280;52177;55.968;37.498;2023-07-02T00:12:16;97994.38;;;18.51;71.60
65546;BME280;52177;55.968;37.498;2023-07-02T00:12:46;97991.13;;;18.49;71.63
65546;BME280;52177;55.968;37.498;2023-07-02T00:13:17;97993.81;;;18.49;71.58
65546;BME280;52177;55.968;37.498;2023-07-02T00:13:47;97994.63;;;18.49;71.92
65546;BME280;52177;55.968;37.498;2023-07-02T00:14:17;97992.47;;;18.46;72.07
65546;BME280;52177;55.968;37.498;2023-07-02T00:14:48;97986.28;;;18.46;71.86
65546;BME280;52177;55.968;37.498;2023-07-02T00:15:18;97996.28;;;18.45;72.09
65546;BME280;52177;55.968;37.498;2023-07-02T00:15:48;97991.66;;;18.46;72.10
65546;BME280;52177;55.968;37.498;2023-07-02T00:16:19;97999.78;;;18.46;71.88
65546;BME280;52177;55.968;37.498;2023-07-02T00:16:49;97993.56;;;18.45;72.00
65546;BME280;52177;55.968;37.498;2023-07-02T00:17:20;97992.75;;;18.45;72.01
65546;BME280;52177;55.968;37.498;2023-07-02T00:17:50;97995.44;;;18.45;71.93
65546;BME280;52177;55.968;37.498;2023-07-02T00:18:21;97996.28;;;18.45;71.80
65546;BME280;52177;55.968;37.498;2023-07-02T00:18:51;97994.38;;;18.46;71.79
65546;BME280;52177;55.968;37.498;2023-07-02T00:19:22;98000.81;;;18.45;71.82
65546;BME280;52177;55.968;37.498;2023-07-02T00:19:53;97996.28;;;18.45;71.57
65546;BME280;52177;55.968;37.498;2023-07-02T00:20:23;97995.44;;;18.45;71.77
65546;BME280;52177;55.968;37.498;2023-07-02T00:20:53;97995.72;;;18.43;71.87
65546;BME280;52177;55.968;37.498;2023-07-02T00:21:24;97995.72;;;18.43;71.76
65546;BME280;52177;55.968;37.498;2023-07-02T00:21:58;97993.28;;;18.42;71.98
65546;BME280;52177;55.968;37.498;2023-07-02T00:22:29;97993.53;;;18.40;71.67
65546;BME280;52177;55.968;37.498;2023-07-02T00:23:01;97991.13;;;18.39;72.07
65546;BME280;52177;55.968;37.498;2023-07-02T00:23:32;98003.00;;;18.38;72.21
65546;BME280;52177;55.968;37.498;2023-07-02T00:24:03;97997.06;;;18.35;72.12
65546;BME280;52177;55.968;37.498;2023-07-02T00:24:33;97994.63;;;18.34;71.97
65546;BME280;52177;55.968;37.498;2023-07-02T00:25:03;97998.94;;;18.35;72.20
65546;BME280;52177;55.968;37.498;2023-07-02T00:25:37;97993.84;;;18.33;72.22
65546;BME280;52177;55.968;37.498;2023-07-02T00:26:07;97994.09;;;18.32;71.96
65546;BME280;52177;55.968;37.498;2023-07-02T00:26:38;97994.63;;;18.34;71.92
65546;BME280;52177;55.968;37.498;2023-07-02T00:27:10;97995.69;;;18.33;72.02
65546;BME280;52177;55.968;37.498;2023-07-02T00:27:40;98001.94;;;18.33;72.09
65546;BME280;52177;55.968;37.498;2023-07-02T00:28:11;97994.09;;;18.32;72.02
65546;BME280;52177;55.968;37.498;2023-07-02T00:28:41;97997.06;;;18.30;71.99
65546;BME280;52177;55.968;37.498;2023-07-02T00:29:12;97996.25;;;18.30;72.23
65546;BME280;52177;55.968;37.498;2023-07-02T00:29:42;98004.09;;;18.31;71.99
65546;BME280;52177;55.968;37.498;2023-07-02T00:30:13;98003.53;;;18.29;72.03
65546;BME280;52177;55.968;37.498;2023-07-02T00:30:43;98000.28;;;18.27;72.02
65546;BME280;52177;55.968;37.498;2023-07-02T00:31:13;98004.88;;;18.27;72.17
65546;BME280;52177;55.968;37.498;2023-07-02T00:31:44;98007.03;;;18.25;72.67
65546;BME280;52177;55.968;37.498;2023-07-02T00:32:14;98007.03;;;18.25;72.61
65546;BME280;52177;55.968;37.498;2023-07-02T00:32:44;97995.44;;;18.24;72.58
65546;BME280;52177;55.968;37.498;2023-07-02T00:33:15;98004.34;;;18.25;72.27
65546;BME280;52177;55.968;37.498;2023-07-02T00:33:45;98004.34;;;18.25;72.45
65546;BME280;52177;55.968;37.498;2023-07-02T00:34:18;98002.44;;;18.25;72.15
65546;BME280;52177;55.968;37.498;2023-07-02T00:34:48;98008.09;;;18.24;72.38
65546;BME280;52177;55.968;37.498;2023-07-02T00:35:18;98004.34;;;18.25;72.33
65546;BME280;52177;55.968;37.498;2023-07-02T00:35:48;98004.34;;;18.25;72.38
65546;BME280;52177;55.968;37.498;2023-07-02T00:36:19;98003.25;;;18.26;72.33
65546;BME280;52177;55.968;37.498;2023-07-02T00:36:49;97998.13;;;18.24;72.40
65546;BME280;52177;55.968;37.498;2023-07-02T00:37:19;98000.28;;;18.22;72.46
65546;BME280;52177;55.968;37.498;2023-07-02T00:37:50;98004.06;;;18.21;72.60
65546;BME280;52177;55.968;37.498;2023-07-02T00:38:21;98002.19;;;18.22;72.67
65546;BME280;52177;55.968;37.498;2023-07-02T00:38:52;98007.03;;;18.20;72.71
65546;BME280;52177;55.968;37.498;2023-07-02T00:39:22;98003.53;;;18.19;72.70
65546;BME280;52177;55.968;37.498;2023-07-02T00:39:53;98003.53;;;18.19;72.53
65546;BME280;52177;55.968;37.498;2023-07-02T00:40:23;98005.69;;;18.17;72.59
65546;BME280;52177;55.968;37.498;2023-07-02T00:40:53;98003.78;;;18.18;72.57
65546;BME280;52177;55.968;37.498;2023-07-02T00:41:24;98007.56;;;18.17;72.72
65546;BME280;52177;55.968;37.498;2023-07-02T00:42:00;98000.56;;;18.16;72.71
65546;BME280;52177;55.968;37.498;2023-07-02T00:42:31;98002.44;;;18.15;73.02
65546;BME280;52177;55.968;37.498;2023-07-02T00:43:01;98008.63;;;18.16;72.86
65546;BME280;52177;55.968;37.498;2023-07-02T00:43:31;98011.34;;;18.16;72.94
65546;BME280;52177;55.968;37.498;2023-07-02T00:44:02;98003.25;;;18.16;72.84
65546;BME280;52177;55.968;37.498;2023-07-02T00:44:32;98004.84;;;18.17;72.85
65546;BME280;52177;55.968;37.498;2023-07-02T00:45:03;97995.16;;;18.16;72.85
65546;BME280;52177;55.968;37.498;2023-07-02T00:45:33;98004.06;;;18.16;72.83
65546;BME280;52177;55.968;37.498;2023-07-02T00:46:04;97997.31;;;18.13;72.90
65546;BME280;52177;55.968;37.498;2023-07-02T00:46:35;98001.63;;;18.14;72.97
65546;BME280;52177;55.968;37.498;2023-07-02T00:47:07;97998.94;;;18.14;72.97
65546;BME280;52177;55.968;37.498;2023-07-02T00:47:37;98002.69;;;18.13;73.32
65546;BME280;52177;55.968;37.498;2023-07-02T00:48:08;98002.69;;;18.13;73.20
65546;BME280;52177;55.968;37.498;2023-07-02T00:48:39;97999.47;;;18.11;73.11
65546;BME280;52177;55.968;37.498;2023-07-02T00:49:09;97999.47;;;18.11;72.97
65546;BME280;52177;55.968;37.498;2023-07-02T00:49:40;98007.00;;;18.09;73.03
65546;BME280;52177;55.968;37.498;2023-07-02T00:50:11;98000.00;;;18.08;73.16
65546;BME280;52177;55.968;37.498;2023-07-02T00:50:42;98002.16;;;18.06;73.13
65546;BME280;52177;55.968;37.498;2023-07-02T00:51:17;98003.25;;;18.05;73.15
65546;BME280;52177;55.968;37.498;2023-07-02T00:51:48;98005.38;;;18.03;73.16
65546;BME280;52177;55.968;37.498;2023-07-02T00:52:18;98009.44;;;18.01;73.38
65546;BME280;52177;55.968;37.498;2023-07-02T00:52:50;98003.50;;;17.99;73.21
65546;BME280;52177;55.968;37.498;2023-07-02T00:53:20;98011.84;;;17.97;73.46
65546;BME280;52177;55.968;37.498;2023-07-02T00:53:55;98012.09;;;17.96;73.77
65546;BME280;52177;55.968;37.498;2023-07-02T00:54:28;98008.59;;;17.95;73.67
65546;BME280;52177;55.968;37.498;2023-07-02T00:54:58;98007.78;;;17.95;73.77
65546;BME280;52177;55.968;37.498;2023-07-02T00:55:28;98012.09;;;17.96;73.77
65546;BME280;52177;55.968;37.498;2023-07-02T00:55:59;98009.13;;;17.97;73.50
65546;BME280;52177;55.968;37.498;2023-07-02T00:56:29;98009.13;;;17.97;73.57
65546;BME280;52177;55.968;37.498;2023-07-02T00:56:59;97997.28;;;17.98;73.40
65546;BME280;52177;55.968;37.498;2023-07-02T00:57:33;98002.69;;;17.98;73.62
65546;BME280;52177;55.968;37.498;2023-07-02T00:58:04;98004.56;;;17.98;73.51
65546;BME280;52177;55.968;37.498;2023-07-02T00:58:42;98007.25;;;17.98;73.33
65546;BME280;52177;55.968;37.498;2023-07-02T00:59:18;98009.13;;;17.97;73.49
65546;BME280;52177;55.968;37.498;2023-07-02T00:59:48;98012.94;;;17.96;73.49
65546;BME280;52177;55.968;37.498;2023-07-02T01:00:22;98009.13;;;17.97;73.43
65546;BME280;52177;55.968;37.498;2023-07-02T01:00:53;98014.28;;;17.99;73.33
65546;BME280;52177;55.968;37.498;2023-07-02T01:01:27;98006.19;;;17.99;73.55
65546;BME280;52177;55.968;37.498;2023-07-02T01:01:58;98016.97;;;17.99;73.25
65546;BME280;52177;55.968;37.498;2023-07-02T01:02:28;98003.50;;;17.99;73.25
65546;BME280;52177;55.968;37.498;2023-07-02T01:02:59;98011.59;;;17.99;73.38
65546;BME280;52177;55.968;37.498;2023-07-02T01:03:30;98009.13;;;17.97;73.38
65546;BME280;52177;55.968;37.498;2023-07-02T01:04:04;98004.56;;;17.98;73.24
65546;BME280;52177;55.968;37.498;2023-07-02T01:04:35;98005.38;;;17.98;73.25
65546;BME280;52177;55.968;37.498;2023-07-02T01:05:05;98011.84;;;17.97;73.56
65546;BME280;52177;55.968;37.498;2023-07-02T01:05:35;98013.72;;;17.97;73.50
65546;BME280;52177;55.968;37.498;2023-07-02T01:06:06;98014.78;;;17.96;73.70
65546;BME280;52177;55.968;37.498;2023-07-02T01:06:37;98012.09;;;17.96;73.61
65546;BME280;52177;55.968;37.498;2023-07-02T01:07:11;98009.94;;;17.92;73.80
65546;BME280;52177;55.968;37.498;2023-07-02T01:07:41;98013.44;;;17.93;74.04
65546;BME280;52177;55.968;37.498;2023-07-02T01:08:11;98009.13;;;17.92;73.91
65546;BME280;52177;55.968;37.498;2023-07-02T01:08:42;98004.00;;;17.90;73.75
65546;BME280;52177;55.968;37.498;2023-07-02T01:09:12;97999.41;;;17.91;74.12
65546;BME280;52177;55.968;37.498;2023-07-02T01:09:42;98007.78;;;17.89;74.06
65546;BME280;52177;55.968;37.498;2023-07-02T01:10:13;98004.28;;;17.89;73.93
65546;BME280;52177;55.968;37.498;2023-07-02T01:10:43;98002.66;;;17.88;74.00
65546;BME280;52177;55.968;37.498;2023-07-02T01:11:14;98003.44;;;17.88;73.96
65546;BME280;52177;55.968;37.498;2023-07-02T01:11:49;98010.47;;;17.89;73.97
65546;BME280;52177;55.968;37.498;2023-07-02T01:12:21;98006.69;;;17.90;73.79
65546;BME280;52177;55.968;37.498;2023-07-02T01:12:52;98008.31;;;17.91;73.81
65546;BME280;52177;55.968;37.498;2023-07-02T01:13:24;98013.72;;;17.91;73.87
65546;BME280;52177;55.968;37.498;2023-07-02T01:14:00;98013.72;;;17.91;73.59
65546;BME280;52177;55.968;37.498;2023-07-02T01:14:38;98012.88;;;17.91;74.10
65546;BME280;52177;55.968;37.498;2023-07-02T01:15:10;98013.19;;;17.89;73.81
65546;BME280;52177;55.968;37.498;2023-07-02T01:15:42;98008.84;;;17.88;73.96
65546;BME280;52177;55.968;37.498;2023-07-02T01:16:12;98009.13;;;17.87;74.04
65546;BME280;52177;55.968;37.498;2023-07-02T01:16:43;98011.28;;;17.85;74.35
65546;BME280;52177;55.968;37.498;2023-07-02T01:17:14;98008.56;;;17.85;74.26
65546;BME280;52177;55.968;37.498;2023-07-02T01:17:49;98013.97;;;17.85;74.35
65546;BME280;52177;55.968;37.498;2023-07-02T01:18:19;98015.84;;;17.84;74.29
65546;BME280;52177;55.968;37.498;2023-07-02T01:18:51;98016.13;;;17.83;74.22
65546;BME280;52177;55.968;37.498;2023-07-02T01:20:03;98015.56;;;17.81;74.63
65546;BME280;52177;55.968;37.498;2023-07-02T01:20:36;98012.88;;;17.81;74.69
65546;BME280;52177;55.968;37.498;2023-07-02T01:21:07;98015.78;;;17.79;74.52
65546;BME280;52177;55.968;37.498;2023-07-02T01:21:37;98010.69;;;17.78;74.37
65546;BME280;52177;55.968;37.498;2023-07-02T01:22:08;98015.28;;;17.77;74.56
65546;BME280;52177;55.968;37.498;2023-07-02T01:22:39;98009.03;;;17.77;74.59
65546;BME280;52177;55.968;37.498;2023-07-02T01:23:10;98005.81;;;17.75;74.66
65546;BME280;52177;55.968;37.498;2023-07-02T01:23:40;98017.13;;;17.77;74.88
65546;BME280;52177;55.968;37.498;2023-07-02T01:24:11;98013.63;;;17.76;74.71
65546;BME280;52177;55.968;37.498;2023-07-02T01:24:43;98013.09;;;17.74;74.73
65546;BME280;52177;55.968;37.498;2023-07-02T01:25:14;98011.75;;;17.77;74.62
65546;BME280;52177;55.968;37.498;2023-07-02T01:25:45;98015.53;;;17.76;74.92
65546;BME280;52177;55.968;37.498;2023-07-02T01:26:16;98021.72;;;17.76;74.66
65546;BME280;52177;55.968;37.498;2023-07-02T01:26:46;98016.31;;;17.76;74.81
65546;BME280;52177;55.968;37.498;2023-07-02T01:27:17;98025.75;;;17.79;74.71
65546;BME280;52177;55.968;37.498;2023-07-02T01:27:48;98018.78;;;17.78;74.71
65546;BME280;52177;55.968;37.498;2023-07-02T01:28:18;98025.75;;;17.79;74.67
65546;BME280;52177;55.968;37.498;2023-07-02T01:28:49;98022.25;;;17.78;74.80
65546;BME280;52177;55.968;37.498;2023-07-02T01:29:21;98023.06;;;17.79;74.81
65546;BME280;52177;55.968;37.498;2023-07-02T01:29:52;98025.75;;;17.79;74.70
65546;BME280;52177;55.968;37.498;2023-07-02T01:30:22;98025.75;;;17.79;74.68
65546;BME280;52177;55.968;37.498;2023-07-02T01:30:52;98026.56;;;17.79;74.88
65546;BME280;52177;55.968;37.498;2023-07-02T01:31:23;98027.66;;;17.78;74.99
65546;BME280;52177;55.968;37.498;2023-07-02T01:31:55;98022.25;;;17.78;74.97
65546;BME280;52177;55.968;37.498;2023-07-02T01:32:26;98024.16;;;17.78;75.05
65546;BME280;52177;55.968;37.498;2023-07-02T01:32:56;98021.47;;;17.78;75.03
65546;BME280;52177;55.968;37.498;2023-07-02T01:33:26;98032.50;;;17.76;75.17
65546;BME280;52177;55.968;37.498;2023-07-02T01:33:57;98034.38;;;17.76;75.08
65546;BME280;52177;55.968;37.498;2023-07-02T01:34:27;98029.00;;;17.76;75.16
65546;BME280;52177;55.968;37.498;2023-07-02T01:34:57;98029.00;;;17.76;75.16
65546;BME280;52177;55.968;37.498;2023-07-02T01:35:29;98032.75;;;17.75;75.31
65546;BME280;52177;55.968;37.498;2023-07-02T01:35:59;98022.25;;;17.73;75.30
65546;BME280;52177;55.968;37.498;2023-07-02T01:36:29;98023.88;;;17.74;75.34
65546;BME280;52177;55.968;37.498;2023-07-02T01:37:01;98025.75;;;17.73;75.33
65546;BME280;52177;55.968;37.498;2023-07-02T01:37:31;98030.34;;;17.73;75.60
65546;BME280;52177;55.968;37.498;2023-07-02T01:38:07;98025.75;;;17.73;75.56
65546;BME280;52177;55.968;37.498;2023-07-02T01:38:37;98032.75;;;17.75;75.22
65546;BME280;52177;55.968;37.498;2023-07-02T01:39:08;98030.59;;;17.77;75.48
65546;BME280;52177;55.968;37.498;2023-07-02T01:39:38;98029.00;;;17.76;75.38
65546;BME280;52177;55.968;37.498;2023-07-02T01:40:09;98030.88;;;17.75;75.20
65546;BME280;52177;55.968;37.498;2023-07-02T01:40:39;98031.69;;;17.76;75.43
65546;BME280;52177;55.968;37.498;2023-07-02T01:41:09;98026.31;;;17.76;75.19
65546;BME280;52177;55.968;37.498;2023-07-02T01:41:49;98027.34;;;17.75;75.18
65546;BME280;52177;55.968;37.498;2023-07-02T01:42:20;98031.44;;;17.77;75.39
65546;BME280;52177;55.968;37.498;2023-07-02T01:42:50;98026.84;;;17.72;75.40
65546;BME280;52177;55.968;37.498;2023-07-02T01:43:20;98028.69;;;17.72;75.37
65546;BME280;52177;55.968;37.498;2023-07-02T01:43:51;98029.53;;;17.72;75.38
65546;BME280;52177;55.968;37.498;2023-07-02T01:44:22;98029.53;;;17.72;75.42
65546;BME280;52177;55.968;37.498;2023-07-02T01:44:52;98024.94;;;17.73;75.24
65546;BME280;52177;55.968;37.498;2023-07-02T01:45:22;98018.75;;;17.72;75.25
65546;BME280;52177;55.968;37.498;2023-07-02T01:45:53;98027.34;;;17.75;75.20
65546;BME280;52177;55.968;37.498;2023-07-02T01:46:23;98022.81;;;17.75;75.20
65546;BME280;52177;55.968;37.498;2023-07-02T01:46:53;98037.88;;;17.76;75.27
65546;BME280;52177;55.968;37.498;2023-07-02T01:47:26;98033.31;;;17.77;75.32
65546;BME280;52177;55.968;37.498;2023-07-02T01:47:56;98023.88;;;17.74;75.09
65546;BME280;52177;55.968;37.498;2023-07-02T01:48:26;98029.25;;;17.74;75.32
65546;BME280;52177;55.968;37.498;2023-07-02T01:48:57;98024.16;;;17.72;75.26
65546;BME280;52177;55.968;37.498;2023-07-02T01:49:27;98024.94;;;17.73;75.40
65546;BME280;52177;55.968;37.498;2023-07-02T01:49:59;98020.91;;;17.70;75.67
65546;BME280;52177;55.968;37.498;2023-07-02T01:50:29;98029.78;;;17.71;75.52
65546;BME280;52177;55.968;37.498;2023-07-02T01:51:00;98027.91;;;17.71;75.61
65546;BME280;52177;55.968;37.498;2023-07-02T01:51:30;98024.41;;;17.71;75.64
65546;BME280;52177;55.968;37.498;2023-07-02T01:52:00;98031.41;;;17.72;75.67
65546;BME280;52177;55.968;37.498;2023-07-02T01:52:31;98028.44;;;17.73;75.60
65546;BME280;52177;55.968;37.498;2023-07-02T01:53:03;98025.75;;;17.73;75.53
65546;BME280;52177;55.968;37.498;2023-07-02T01:53:33;98023.59;;;17.76;75.58
65546;BME280;52177;55.968;37.498;2023-07-02T01:54:04;98022.53;;;17.77;75.50
65546;BME280;52177;55.968;37.498;2023-07-02T01:54:35;98024.97;;;17.78;75.56
65546;BME280;52177;55.968;37.498;2023-07-02T01:55:05;98028.47;;;17.79;75.37
65546;BME280;52177;55.968;37.498;2023-07-02T01:55:36;98022.00;;;17.80;75.40
65546;BME280;52177;55.968;37.498;2023-07-02T01:56:06;98024.44;;;17.81;75.34
65546;BME280;52177;55.968;37.498;2023-07-02T01:56:37;98027.69;;;17.83;75.36
65546;BME280;52177;55.968;37.498;2023-07-02T01:57:07;98030.41;;;17.83;75.10
65546;BME280;52177;55.968;37.498;2023-07-02T01:57:37;98025.00;;;17.83;75.03
65546;BME280;52177;55.968;37.498;2023-07-02T01:58:08;98026.09;;;17.82;75.07
65546;BME280;52177;55.968;37.498;2023-07-02T01:58:38;98025.00;;;17.83;75.03
65546;BME280;52177;55.968;37.498;2023-07-02T01:59:08;98028.78;;;17.82;75.18
65546;BME280;52177;55.968;37.498;2023-07-02T01:59:39;98020.41;;;17.84;75.05
65546;BME280;52177;55.968;37.498;2023-07-02T02:00:10;98023.94;;;17.84;74.97
65546;BME280;52177;55.968;37.498;2023-07-02T02:00:40;98025.00;;;17.83;75.01
65546;BME280;52177;55.968;37.498;2023-07-02T02:01:11;98023.41;;;17.82;75.10
65546;BME280;52177;55.968;37.498;2023-07-02T02:01:41;98028.78;;;17.82;75.09
65546;BME280;52177;55.968;37.498;2023-07-02T02:02:11;98024.19;;;17.83;75.13
65546;BME280;52177;55.968;37.498;2023-07-02T02:02:42;98026.09;;;17.82;75.10
65546;BME280;52177;55.968;37.498;2023-07-02T02:03:13;98030.41;;;17.83;75.13
65546;BME280;52177;55.968;37.498;2023-07-02T02:03:44;98026.91;;;17.83;75.18
65546;BME280;52177;55.968;37.498;2023-07-02T02:04:14;98021.50;;;17.83;75.15
65546;BME280;52177;55.968;37.498;2023-07-02T02:04:45;98028.50;;;17.84;75.35
65546;BME280;52177;55.968;37.498;2023-07-02T02:05:15;98020.16;;;17.85;75.21
65546;BME280;52177;55.968;37.498;2023-07-02T02:05:45;98026.34;;;17.86;75.12
65546;BME280;52177;55.968;37.498;2023-07-02T02:06:15;98025.56;;;17.85;75.18
65546;BME280;52177;55.968;37.498;2023-07-02T02:06:46;98029.06;;;17.86;75.15
65546;BME280;52177;55.968;37.498;2023-07-02T02:07:16;98025.31;;;17.87;74.83
65546;BME280;52177;55.968;37.498;2023-07-02T02:07:46;98020.97;;;17.86;74.94
65546;BME280;52177;55.968;37.498;2023-07-02T02:08:17;98021.81;;;17.86;75.03
65546;BME280;52177;55.968;37.498;2023-07-02T02:08:47;98025.31;;;17.87;75.05
65546;BME280;52177;55.968;37.498;2023-07-02T02:09:18;98030.94;;;17.85;74.88
65546;BME280;52177;55.968;37.498;2023-07-02T02:09:48;98031.50;;;17.87;74.85
65546;BME280;52177;55.968;37.498;2023-07-02T02:10:18;98024.50;;;17.86;74.74
65546;BME280;52177;55.968;37.498;2023-07-02T02:10:49;98029.88;;;17.86;74.74
65546;BME280;52177;55.968;37.498;2023-07-02T02:11:19;98036.34;;;17.85;74.83
65546;BME280;52177;55.968;37.498;2023-07-02T02:11:50;98027.44;;;17.85;75.12
65546;BME280;52177;55.968;37.498;2023-07-02T02:12:22;98037.13;;;17.86;75.01
65546;BME280;52177;55.968;37.498;2023-07-02T02:12:52;98031.50;;;17.87;74.98
65546;BME280;52177;55.968;37.498;2023-07-02T02:13:23;98033.38;;;17.87;74.93
65546;BME280;52177;55.968;37.498;2023-07-02T02:13:53;98032.03;;;17.89;74.80
65546;BME280;52177;55.968;37.498;2023-07-02T02:14:23;98033.66;;;17.90;74.69
65546;BME280;52177;55.968;37.498;2023-07-02T02:14:54;98034.44;;;17.91;74.95
65546;BME280;52177;55.968;37.498;2023-07-02T02:15:24;98036.91;;;17.92;74.97
65546;BME280;52177;55.968;37.498;2023-07-02T02:15:54;98035.28;;;17.91;74.87
65546;BME280;52177;55.968;37.498;2023-07-02T02:16:25;98029.91;;;17.91;74.89
65546;BME280;52177;55.968;37.498;2023-07-02T02:16:55;98035.28;;;17.91;75.00
65546;BME280;52177;55.968;37.498;2023-07-02T02:17:26;98028.25;;;17.90;74.94
65546;BME280;52177;55.968;37.498;2023-07-02T02:17:56;98029.06;;;17.91;75.03
65546;BME280;52177;55.968;37.498;2023-07-02T02:18:26;98035.28;;;17.91;75.00
65546;BME280;52177;55.968;37.498;2023-07-02T02:18:57;98028.00;;;17.92;75.15
65546;BME280;52177;55.968;37.498;2023-07-02T02:19:27;98031.50;;;17.92;75.02
65546;BME280;52177;55.968;37.498;2023-07-02T02:19:57;98031.50;;;17.92;74.76
65546;BME280;52177;55.968;37.498;2023-07-02T02:20:28;98020.47;;;17.94;74.99
65546;BME280;52177;55.968;37.498;2023-07-02T02:20:58;98032.06;;;17.95;74.95
65546;BME280;52177;55.968;37.498;2023-07-02T02:21:29;98029.09;;;17.96;74.96
65546;BME280;52177;55.968;37.498;2023-07-02T02:21:59;98030.72;;;17.97;75.15
65546;BME280;52177;55.968;37.498;2023-07-02T02:22:29;98032.34;;;17.98;74.94
65546;BME280;52177;55.968;37.498;2023-07-02T02:23:00;98032.06;;;18.00;74.73
65546;BME280;52177;55.968;37.498;2023-07-02T02:23:30;98032.88;;;18.00;74.72
65546;BME280;52177;55.968;37.498;2023-07-02T02:24:00;98033.69;;;18.01;74.71
65546;BME280;52177;55.968;37.498;2023-07-02T02:24:31;98032.06;;;18.00;74.62
65546;BME280;52177;55.968;37.498;2023-07-02T02:25:01;98029.66;;;17.98;74.64
65546;BME280;52177;55.968;37.498;2023-07-02T02:25:32;98028.81;;;17.98;74.71
65546;BME280;52177;55.968;37.498;2023-07-02T02:26:02;98018.88;;;17.98;74.75
65546;BME280;52177;55.968;37.498;2023-07-02T02:26:33;98034.22;;;17.98;74.69
65546;BME280;52177;55.968;37.498;2023-07-02T02:27:04;98028.56;;;17.99;74.79
65546;BME280;52177;55.968;37.498;2023-07-02T02:27:34;98030.44;;;17.99;74.69
65546;BME280;52177;55.968;37.498;2023-07-02T02:28:05;98031.25;;;17.99;74.75
65546;BME280;52177;55.968;37.498;2023-07-02T02:28:35;98022.91;;;18.01;74.83
65546;BME280;52177;55.968;37.498;2023-07-02T02:29:07;98034.50;;;18.01;74.66
65546;BME280;52177;55.968;37.498;2023-07-02T02:29:38;98031.56;;;18.03;74.87
65546;BME280;52177;55.968;37.498;2023-07-02T02:30:08;98031.56;;;18.03;74.80
65546;BME280;52177;55.968;37.498;2023-07-02T02:30:39;98031.81;;;18.01;74.84
65546;BME280;52177;55.968;37.498;2023-07-02T02:31:09;98031.00;;;18.01;74.86
65546;BME280;52177;55.968;37.498;2023-07-02T02:31:39;98030.16;;;18.00;74.96
65546;BME280;52177;55.968;37.498;2023-07-02T02:32:10;98034.50;;;18.01;74.96
65546;BME280;52177;55.968;37.498;2023-07-02T02:32:40;98032.59;;;18.02;74.94
65546;BME280;52177;55.968;37.498;2023-07-02T02:33:10;98032.34;;;18.03;74.98
65546;BME280;52177;55.968;37.498;2023-07-02T02:33:41;98031.25;;;18.04;74.94
65546;BME280;52177;55.968;37.498;2023-07-02T02:34:11;98029.38;;;18.05;74.89
65546;BME280;52177;55.968;37.498;2023-07-02T02:34:41;98033.72;;;18.06;74.78
65546;BME280;52177;55.968;37.498;2023-07-02T02:35:13;98034.25;;;18.08;74.72
65546;BME280;52177;55.968;37.498;2023-07-02T02:35:43;98021.56;;;18.08;74.77
65546;BME280;52177;55.968;37.498;2023-07-02T02:36:13;98029.66;;;18.08;74.77
65546;BME280;52177;55.968;37.498;2023-07-02T02:36:44;98032.09;;;18.10;74.80
65546;BME280;52177;55.968;37.498;2023-07-02T02:37:14;98022.13;;;18.10;74.81
65546;BME280;52177;55.968;37.498;2023-07-02T02:37:44;98026.44;;;18.11;74.87
65546;BME280;52177;55.968;37.498;2023-07-02T02:38:15;98027.78;;;18.14;74.86
65546;BME280;52177;55.968;37.498;2023-07-02T02:38:45;98024.81;;;18.16;74.84
65546;BME280;52177;55.968;37.498;2023-07-02T02:39:15;98023.22;;;18.14;74.96
65546;BME280;52177;55.968;37.498;2023-07-02T02:39:46;98024.81;;;18.16;74.97
65546;BME280;52177;55.968;37.498;2023-07-02T02:40:16;98025.38;;;18.18;74.74
65546;BME280;52177;55.968;37.498;2023-07-02T02:40:46;98025.38;;;18.18;74.68
65546;BME280;52177;55.968;37.498;2023-07-02T02:41:17;98025.91;;;18.20;74.72
65546;BME280;52177;55.968;37.498;2023-07-02T02:41:47;98032.13;;;18.20;74.63